Time;durP1;ratioP1;P1;durP2;ratioP2;P2;SDS_P1;SDS_P2;PMS_P1;PMS_P2;Temp;Humidity;BMP_temperature;BMP_pressure;BME280_temperature;BME280_humidity;BME280_pressure;Samples;Min_cycle;Max_cycle;Signal;HPM_P1;HPM_P2
2021/05/30 00:00:41;;;;;;;8.83;5.73;;;12.10;99.90;;;;;;5103770;28;20161;-83
2021/05/30 00:03:08;;;;;;;6.10;4.60;;;12.10;99.90;;;;;;5085699;28;20835;-83
2021/05/30 00:05:39;;;;;;;6.63;5.40;;;12.00;99.90;;;;;;5106183;28;20166;-83
2021/05/30 00:08:07;;;;;;;6.60;5.63;;;12.00;99.90;;;;;;5103522;28;20487;-83
2021/05/30 00:10:33;;;;;;;10.90;5.17;;;12.00;99.90;;;;;;5102143;28;20445;-83
2021/05/30 00:12:59;;;;;;;3.83;3.43;;;12.00;99.90;;;;;;5085726;28;20389;-82
2021/05/30 00:15:28;;;;;;;5.23;4.73;;;11.90;99.90;;;;;;5087119;28;20395;-83
2021/05/30 00:17:54;;;;;;;6.80;5.47;;;11.90;99.90;;;;;;5103656;28;20557;-83
2021/05/30 00:20:20;;;;;;;6.07;4.80;;;11.90;99.90;;;;;;5086081;28;20444;-83
2021/05/30 00:22:46;;;;;;;8.30;6.17;;;11.80;99.90;;;;;;5112293;28;20393;-80
2021/05/30 00:25:13;;;;;;;7.50;5.43;;;11.80;99.90;;;;;;5117346;28;20377;-81
2021/05/30 00:27:39;;;;;;;6.03;5.27;;;11.80;99.90;;;;;;5118438;28;20369;-81
2021/05/30 00:30:05;;;;;;;5.17;4.67;;;11.80;99.90;;;;;;5117659;28;20876;-83
2021/05/30 00:32:31;;;;;;;4.70;4.17;;;11.90;99.90;;;;;;5092842;28;20246;-84
2021/05/30 00:34:57;;;;;;;6.37;4.93;;;11.80;99.90;;;;;;5073983;28;20399;-84
2021/05/30 00:37:23;;;;;;;7.20;5.33;;;11.80;99.90;;;;;;5087832;28;20185;-83
2021/05/30 00:39:49;;;;;;;6.97;5.10;;;11.80;99.90;;;;;;5092995;28;20381;-84
2021/05/30 00:42:15;;;;;;;5.57;4.90;;;11.80;99.90;;;;;;5113709;28;20159;-83
2021/05/30 00:44:41;;;;;;;5.50;5.00;;;11.70;99.90;;;;;;5123683;28;20225;-83
2021/05/30 00:47:08;;;;;;;6.80;4.47;;;11.70;99.90;;;;;;5137609;28;20162;-84
2021/05/30 00:49:35;;;;;;;7.67;5.93;;;11.70;99.90;;;;;;5127329;28;20230;-84
2021/05/30 00:52:04;;;;;;;5.03;4.53;;;11.70;99.90;;;;;;5104505;28;20451;-84
2021/05/30 00:54:31;;;;;;;6.23;5.63;;;11.70;99.90;;;;;;5121884;28;20388;-83
2021/05/30 00:57:06;;;;;;;5.80;4.67;;;11.70;99.90;;;;;;5120505;28;20373;-83
2021/05/30 00:59:32;;;;;;;9.40;5.73;;;11.70;99.90;;;;;;5120732;28;20917;-83
2021/05/30 01:01:58;;;;;;;5.20;4.70;;;11.60;99.90;;;;;;5121034;28;20392;-83
2021/05/30 01:04:24;;;;;;;6.37;5.77;;;11.50;99.90;;;;;;5102207;28;20471;-83
2021/05/30 01:06:54;;;;;;;5.83;5.27;;;11.50;99.90;;;;;;5121101;28;20243;-83
2021/05/30 01:09:20;;;;;;;7.83;5.13;;;11.50;99.90;;;;;;5102848;28;20198;-83
2021/05/30 01:11:47;;;;;;;7.10;4.80;;;11.50;99.90;;;;;;5120299;28;20431;-82
2021/05/30 01:14:13;;;;;;;5.80;5.30;;;11.40;99.90;;;;;;5102441;28;20423;-82
2021/05/30 01:16:40;;;;;;;5.80;5.07;;;11.40;99.90;;;;;;5119920;28;20396;-82
2021/05/30 01:19:10;;;;;;;5.70;4.90;;;11.40;99.90;;;;;;5102040;28;20414;-83
2021/05/30 01:21:38;;;;;;;11.43;5.77;;;11.40;99.90;;;;;;5067378;28;20503;-84
2021/05/30 01:24:04;;;;;;;6.30;5.70;;;11.40;99.90;;;;;;5084174;28;20396;-84
2021/05/30 01:26:30;;;;;;;8.03;5.73;;;11.30;99.90;;;;;;5100833;28;20392;-84
2021/05/30 01:28:56;;;;;;;6.10;4.93;;;11.30;99.90;;;;;;5118867;28;20407;-84
2021/05/30 01:31:23;;;;;;;6.17;5.57;;;11.30;99.90;;;;;;5100760;28;20181;-84
2021/05/30 01:33:49;;;;;;;6.87;5.20;;;11.30;99.90;;;;;;5038946;28;20210;-84
2021/05/30 01:36:15;;;;;;;6.10;4.93;;;11.20;99.90;;;;;;5056077;28;20474;-84
2021/05/30 01:38:41;;;;;;;14.33;6.33;;;11.30;99.90;;;;;;5055655;28;20479;-84
2021/05/30 01:41:07;;;;;;;7.53;6.13;;;11.20;99.90;;;;;;5055939;28;20433;-84
2021/05/30 01:43:33;;;;;;;6.40;5.37;;;11.20;99.90;;;;;;5055543;28;20407;-84
2021/05/30 01:46:01;;;;;;;6.97;5.47;;;11.20;99.90;;;;;;5055599;28;20458;-84
2021/05/30 01:48:27;;;;;;;13.77;7.57;;;11.20;99.90;;;;;;5055577;28;20421;-84
2021/05/30 01:50:53;;;;;;;7.90;6.63;;;11.20;99.90;;;;;;5038890;28;20445;-83
2021/05/30 01:53:25;;;;;;;6.07;5.47;;;11.10;99.90;;;;;;5055517;28;20402;-83
2021/05/30 01:56:55;;;;;;;7.53;6.03;;;11.10;99.90;;;;;;5040655;28;20160;-83
2021/05/30 01:58:40;;;;;;;5.60;5.10;;;11.20;99.90;;;;;;5055642;28;20418;-83
2021/05/30 02:01:09;;;;;;;6.27;5.50;;;11.20;99.90;;;;;;5055615;28;20768;-83
2021/05/30 02:03:36;;;;;;;7.80;5.57;;;11.10;99.90;;;;;;5040547;28;20498;-83
2021/05/30 02:06:03;;;;;;;7.30;5.83;;;11.10;99.90;;;;;;5101920;28;20396;-83
2021/05/30 02:08:31;;;;;;;8.43;6.30;;;11.10;99.90;;;;;;5105048;28;20450;-82
2021/05/30 02:10:58;;;;;;;8.10;6.37;;;11.00;99.90;;;;;;5115480;28;20908;-83
2021/05/30 02:13:25;;;;;;;7.77;5.53;;;11.00;99.90;;;;;;5122791;28;20395;-84
2021/05/30 02:15:52;;;;;;;10.83;5.60;;;11.00;99.90;;;;;;5118150;28;20478;-84
2021/05/30 02:18:18;;;;;;;10.70;5.83;;;11.10;99.90;;;;;;5118188;28;20400;-83
2021/05/30 02:20:44;;;;;;;9.33;6.53;;;11.00;99.90;;;;;;5099739;28;20392;-84
2021/05/30 02:23:12;;;;;;;7.53;6.53;;;11.00;99.90;;;;;;5118265;28;20170;-84
2021/05/30 02:25:39;;;;;;;5.87;5.30;;;11.00;99.90;;;;;;5100025;28;20169;-84
2021/05/30 02:28:05;;;;;;;9.13;6.47;;;11.00;99.90;;;;;;5118589;28;20396;-83
2021/05/30 02:30:32;;;;;;;6.27;5.13;;;11.00;99.90;;;;;;5100031;28;20525;-84
2021/05/30 02:32:58;;;;;;;8.10;6.17;;;11.00;99.90;;;;;;5100143;28;20392;-83
2021/05/30 02:35:24;;;;;;;14.33;6.67;;;11.00;99.90;;;;;;5082612;28;20384;-82
2021/05/30 02:37:52;;;;;;;7.57;5.87;;;11.00;99.90;;;;;;5118545;28;20777;-83
2021/05/30 02:40:18;;;;;;;7.90;6.07;;;11.00;99.90;;;;;;5118749;28;20392;-83
2021/05/30 02:42:44;;;;;;;7.47;5.80;;;11.00;99.90;;;;;;5118881;28;20158;-83
2021/05/30 02:45:11;;;;;;;7.47;6.27;;;11.00;99.90;;;;;;5118359;28;20226;-83
2021/05/30 02:47:36;;;;;;;7.83;6.20;;;11.10;99.90;;;;;;5118847;28;20235;-84
2021/05/30 02:50:04;;;;;;;8.00;5.43;;;11.00;99.90;;;;;;5118344;28;20400;-84
2021/05/30 02:52:30;;;;;;;6.90;5.67;;;11.00;99.90;;;;;;5119555;28;20200;-83
2021/05/30 02:54:55;;;;;;;5.70;5.20;;;10.90;99.90;;;;;;5129178;28;20392;-82
2021/05/30 02:57:21;;;;;;;10.50;6.50;;;11.00;99.90;;;;;;5112692;28;20445;-84
2021/05/30 02:59:47;;;;;;;11.23;6.83;;;10.90;99.90;;;;;;5130113;28;20199;-83
2021/05/30 03:02:13;;;;;;;8.37;6.00;;;10.90;99.90;;;;;;5123664;28;20193;-83
2021/05/30 03:04:39;;;;;;;7.73;5.50;;;10.90;99.90;;;;;;5100518;28;20396;-83
2021/05/30 03:07:05;;;;;;;11.00;5.53;;;10.90;99.90;;;;;;5118470;28;20883;-84
2021/05/30 03:09:31;;;;;;;9.30;6.20;;;10.90;99.90;;;;;;5118702;28;20531;-83
2021/05/30 03:11:57;;;;;;;8.70;6.30;;;10.90;99.90;;;;;;5119078;28;20189;-84
2021/05/30 03:14:22;;;;;;;6.83;6.13;;;10.90;99.90;;;;;;5119244;28;20158;-83
2021/05/30 03:16:48;;;;;;;8.87;6.00;;;10.80;99.90;;;;;;5118878;28;20158;-83
2021/05/30 03:19:14;;;;;;;7.17;6.47;;;10.90;99.90;;;;;;5120278;28;20159;-83
2021/05/30 03:21:41;;;;;;;6.40;5.57;;;10.80;99.90;;;;;;5123436;28;20170;-83
2021/05/30 03:24:08;;;;;;;5.77;4.83;;;10.80;99.90;;;;;;5124814;28;20185;-83
2021/05/30 03:26:34;;;;;;;10.63;5.67;;;10.80;99.90;;;;;;5124389;28;20396;-83
2021/05/30 03:28:59;;;;;;;9.00;6.27;;;10.80;99.90;;;;;;5124227;28;20407;-83
2021/05/30 03:31:25;;;;;;;6.90;5.23;;;10.80;99.90;;;;;;5106151;28;20239;-84
2021/05/30 03:33:51;;;;;;;7.20;6.07;;;10.80;99.90;;;;;;5107036;28;20162;-84
2021/05/30 03:36:21;;;;;;;6.50;5.90;;;10.70;99.90;;;;;;5125645;28;20158;-84
2021/05/30 03:38:48;;;;;;;10.97;5.10;;;10.70;99.90;;;;;;5108656;28;20158;-84
2021/05/30 03:41:16;;;;;;;6.67;5.97;;;10.70;99.90;;;;;;5126744;28;20445;-83
2021/05/30 03:43:41;;;;;;;9.00;6.63;;;10.70;99.90;;;;;;5136191;28;20396;-83
2021/05/30 03:46:07;;;;;;;10.63;6.47;;;10.70;99.90;;;;;;5105585;28;20501;-83
2021/05/30 03:48:33;;;;;;;11.63;5.83;;;10.60;99.90;;;;;;5120689;28;20204;-82
2021/05/30 03:50:59;;;;;;;7.40;6.70;;;10.60;99.90;;;;;;5119961;28;20436;-83
2021/05/30 03:53:25;;;;;;;7.00;5.47;;;10.70;99.90;;;;;;5118663;28;20448;-84
2021/05/30 03:55:51;;;;;;;8.87;4.83;;;10.70;99.90;;;;;;5120778;28;20409;-83
2021/05/30 03:58:17;;;;;;;5.80;5.30;;;10.60;99.90;;;;;;5116490;28;20615;-83
2021/05/30 04:00:43;;;;;;;8.00;5.50;;;10.60;99.90;;;;;;5105426;28;20401;-84
2021/05/30 04:03:09;;;;;;;8.60;6.13;;;10.60;99.90;;;;;;5100046;28;20282;-83
2021/05/30 04:05:36;;;;;;;8.87;6.10;;;10.60;99.90;;;;;;5099874;28;20404;-83
2021/05/30 04:08:02;;;;;;;6.67;5.50;;;10.50;99.90;;;;;;5099973;28;20424;-83
2021/05/30 04:10:31;;;;;;;7.00;6.07;;;10.60;99.90;;;;;;5100071;28;20392;-83
2021/05/30 04:12:58;;;;;;;7.57;5.87;;;10.60;99.90;;;;;;5100232;28;20444;-83
2021/05/30 04:15:25;;;;;;;10.37;6.10;;;10.60;99.90;;;;;;5100093;28;20899;-83
2021/05/30 04:17:50;;;;;;;10.90;6.20;;;10.70;99.90;;;;;;5099887;28;20431;-83
2021/05/30 04:20:17;;;;;;;7.10;6.20;;;10.60;99.90;;;;;;5100299;28;20458;-83
2021/05/30 04:22:44;;;;;;;10.83;6.17;;;10.60;99.90;;;;;;5082253;28;20175;-83
2021/05/30 04:25:11;;;;;;;7.07;5.80;;;10.60;99.90;;;;;;5100226;28;20415;-83
2021/05/30 04:27:37;;;;;;;11.73;6.57;;;10.60;99.90;;;;;;5081495;28;20763;-83
2021/05/30 04:30:06;;;;;;;8.93;6.70;;;10.70;99.90;;;;;;5100456;28;20496;-83
2021/05/30 04:32:32;;;;;;;7.23;5.90;;;10.60;99.90;;;;;;5099967;28;20440;-83
2021/05/30 04:34:57;;;;;;;7.07;6.33;;;10.70;99.90;;;;;;5092882;28;20395;-83
2021/05/30 04:37:26;;;;;;;6.87;6.20;;;10.70;99.90;;;;;;5110774;28;20186;-83
2021/05/30 04:39:52;;;;;;;7.00;6.07;;;10.70;99.90;;;;;;5107626;28;20393;-84
2021/05/30 04:42:18;;;;;;;10.43;7.60;;;10.70;99.90;;;;;;5083620;28;20442;-84
2021/05/30 04:44:45;;;;;;;7.57;6.13;;;10.80;99.90;;;;;;5088470;28;20228;-83
2021/05/30 04:47:11;;;;;;;6.63;6.03;;;10.80;99.90;;;;;;5120471;28;20403;-84
2021/05/30 04:49:38;;;;;;;7.63;6.30;;;10.80;99.90;;;;;;5119999;28;20400;-84
2021/05/30 04:52:07;;;;;;;10.30;6.83;;;10.80;99.90;;;;;;5119587;28;20436;-84
2021/05/30 04:54:32;;;;;;;6.53;5.37;;;10.90;99.90;;;;;;5119258;28;20716;-84
2021/05/30 04:57:01;;;;;;;8.20;6.47;;;11.00;99.90;;;;;;5119444;28;20417;-83
2021/05/30 04:59:27;;;;;;;8.30;5.90;;;11.00;99.90;;;;;;5119814;28;20543;-83
2021/05/30 05:01:52;;;;;;;9.80;6.17;;;11.00;99.90;;;;;;5118781;28;20399;-84
2021/05/30 05:04:20;;;;;;;7.30;6.27;;;11.10;99.90;;;;;;5118890;28;20573;-84
2021/05/30 05:06:46;;;;;;;6.87;6.10;;;11.20;99.90;;;;;;5119342;28;20262;-83
2021/05/30 05:09:12;;;;;;;10.80;6.80;;;11.30;99.90;;;;;;5119334;28;20864;-83
2021/05/30 05:11:38;;;;;;;8.73;7.80;;;11.30;99.90;;;;;;5118487;28;20186;-83
2021/05/30 05:14:04;;;;;;;6.93;6.00;;;11.40;99.90;;;;;;5118194;28;20155;-83
2021/05/30 05:16:30;;;;;;;9.70;6.90;;;11.40;99.90;;;;;;5100772;28;20154;-83
2021/05/30 05:18:57;;;;;;;9.53;6.67;;;11.60;99.90;;;;;;5066434;28;20178;-84
2021/05/30 05:21:22;;;;;;;7.63;6.57;;;11.60;99.90;;;;;;5119472;28;20396;-83
2021/05/30 05:23:48;;;;;;;8.10;6.40;;;11.60;99.90;;;;;;5119112;28;20452;-83
2021/05/30 05:26:14;;;;;;;7.87;6.23;;;11.70;99.90;;;;;;5101361;28;20158;-83
2021/05/30 05:28:40;;;;;;;8.63;6.93;;;11.80;99.90;;;;;;5120562;28;20158;-82
2021/05/30 05:31:07;;;;;;;32.97;7.03;;;11.80;99.90;;;;;;5134621;28;20198;-82
2021/05/30 05:33:33;;;;;;;9.80;6.23;;;11.80;99.90;;;;;;5126093;28;20168;-83
2021/05/30 05:35:59;;;;;;;10.57;6.37;;;11.90;99.90;;;;;;5118673;28;20780;-84
2021/05/30 05:38:25;;;;;;;8.17;6.50;;;12.00;99.90;;;;;;5119344;28;20194;-84
2021/05/30 05:40:51;;;;;;;8.83;6.27;;;12.00;99.90;;;;;;5117958;28;20399;-82
2021/05/30 05:43:18;;;;;;;7.97;6.43;;;11.90;99.90;;;;;;5115902;28;20249;-83
2021/05/30 05:45:43;;;;;;;9.40;7.40;;;12.10;99.90;;;;;;5118268;28;20491;-84
2021/05/30 05:48:11;;;;;;;8.73;7.07;;;12.10;99.90;;;;;;5100821;28;20759;-84
2021/05/30 05:50:38;;;;;;;7.07;6.30;;;12.10;99.90;;;;;;5119083;28;20194;-83
2021/05/30 05:53:04;;;;;;;8.37;7.33;;;12.20;99.90;;;;;;5101203;28;20739;-83
2021/05/30 05:55:32;;;;;;;6.87;6.07;;;12.20;99.90;;;;;;5117841;28;20388;-83
2021/05/30 05:57:58;;;;;;;8.00;6.37;;;12.20;99.90;;;;;;5118031;28;20245;-82
2021/05/30 06:00:24;;;;;;;12.63;6.83;;;12.20;99.90;;;;;;5117834;28;20428;-83
2021/05/30 06:02:51;;;;;;;10.10;6.23;;;12.40;99.90;;;;;;5099894;28;20154;-83
2021/05/30 06:05:19;;;;;;;9.33;6.30;;;12.40;99.90;;;;;;5117672;28;20395;-83
2021/05/30 06:07:46;;;;;;;10.30;8.27;;;12.40;99.90;;;;;;5099997;28;20975;-81
2021/05/30 06:10:13;;;;;;;10.67;6.77;;;12.50;99.90;;;;;;5108837;28;20377;-83
2021/05/30 06:12:39;;;;;;;10.07;6.33;;;12.60;99.90;;;;;;5120559;28;20454;-83
2021/05/30 06:15:06;;;;;;;9.37;7.03;;;12.60;99.90;;;;;;5138463;28;20427;-82
2021/05/30 06:17:32;;;;;;;10.77;7.10;;;12.60;99.90;;;;;;5138756;28;20511;-84
2021/05/30 06:19:58;;;;;;;7.47;5.87;;;12.70;99.90;;;;;;5138340;28;20527;-84
2021/05/30 06:22:25;;;;;;;6.60;6.00;;;12.80;99.90;;;;;;5138985;28;20166;-83
2021/05/30 06:24:51;;;;;;;8.40;6.30;;;12.80;99.90;;;;;;5126337;28;20178;-84
2021/05/30 06:27:16;;;;;;;11.23;6.20;;;12.70;99.90;;;;;;5121803;28;20880;-83
2021/05/30 06:29:42;;;;;;;8.07;6.80;;;12.80;99.90;;;;;;5123049;28;20645;-84
2021/05/30 06:32:08;;;;;;;8.87;6.50;;;12.80;99.90;;;;;;5120836;28;20185;-84
2021/05/30 06:34:34;;;;;;;10.00;6.73;;;12.90;99.90;;;;;;5123550;28;20155;-84
2021/05/30 06:37:00;;;;;;;9.60;7.17;;;13.00;99.90;;;;;;5138317;28;20429;-84
2021/05/30 06:39:26;;;;;;;8.43;6.07;;;13.00;99.90;;;;;;5138084;28;20230;-84
2021/05/30 06:41:54;;;;;;;8.13;7.03;;;13.10;99.90;;;;;;5137951;28;20196;-83
2021/05/30 06:44:20;;;;;;;8.87;6.23;;;13.20;99.90;;;;;;5129312;28;20408;-84
2021/05/30 06:46:47;;;;;;;10.87;6.47;;;13.20;99.90;;;;;;5119845;28;20392;-84
2021/05/30 06:49:13;;;;;;;9.67;7.17;;;13.20;99.90;;;;;;5119035;28;20403;-84
2021/05/30 06:51:39;;;;;;;11.23;7.37;;;13.30;99.90;;;;;;5118247;28;20443;-84
2021/05/30 06:54:06;;;;;;;7.60;6.80;;;13.40;99.90;;;;;;5101138;28;20384;-84
2021/05/30 06:56:32;;;;;;;8.57;6.87;;;13.50;99.90;;;;;;5127153;28;20423;-82
2021/05/30 06:58:59;;;;;;;7.57;6.80;;;13.60;99.90;;;;;;5128766;28;20392;-84
2021/05/30 07:01:26;;;;;;;9.10;6.00;;;13.60;99.90;;;;;;5123697;28;20396;-84
2021/05/30 07:03:52;;;;;;;7.43;5.57;;;13.70;99.90;;;;;;5122903;28;20747;-84
2021/05/30 07:06:19;;;;;;;6.27;5.57;;;13.80;99.90;;;;;;5125125;28;20789;-83
2021/05/30 07:08:45;;;;;;;6.13;5.03;;;13.90;99.90;;;;;;5127582;28;20435;-82
2021/05/30 07:11:12;;;;;;;6.33;5.03;;;14.00;99.90;;;;;;5134660;28;20439;-83
2021/05/30 07:13:39;;;;;;;8.73;7.80;;;14.00;99.90;;;;;;5110740;28;20384;-83
2021/05/30 07:16:05;;;;;;;5.80;5.10;;;14.10;99.90;;;;;;5104536;28;20388;-83
2021/05/30 07:18:31;;;;;;;6.90;5.87;;;14.10;99.90;;;;;;5121580;28;20943;-83
2021/05/30 07:20:57;;;;;;;10.00;5.77;;;14.00;99.90;;;;;;5121722;28;20444;-83
2021/05/30 07:23:24;;;;;;;7.77;6.20;;;14.20;99.90;;;;;;5121896;28;20432;-83
2021/05/30 07:25:51;;;;;;;5.00;4.60;;;14.20;99.90;;;;;;5122347;28;20730;-84
2021/05/30 07:28:17;;;;;;;8.90;6.20;;;14.20;99.90;;;;;;5122305;28;20392;-84
2021/05/30 07:30:43;;;;;;;7.87;5.70;;;14.30;99.90;;;;;;5122708;28;20458;-84
2021/05/30 07:33:09;;;;;;;7.07;5.30;;;14.30;99.90;;;;;;5104238;28;20158;-84
2021/05/30 07:35:36;;;;;;;5.20;4.70;;;14.40;99.90;;;;;;5104061;28;20224;-83
2021/05/30 07:38:03;;;;;;;6.87;5.70;;;14.30;99.90;;;;;;5122147;28;20222;-84
2021/05/30 07:40:29;;;;;;;5.50;5.00;;;14.40;99.90;;;;;;5122037;28;20423;-84
2021/05/30 07:42:55;;;;;;;5.30;4.80;;;14.50;99.90;;;;;;5121598;28;20482;-84
2021/05/30 07:45:23;;;;;;;4.50;3.87;;;14.50;99.90;;;;;;5122286;28;20455;-84
2021/05/30 07:47:49;;;;;;;4.43;4.03;;;14.50;99.90;;;;;;5122326;28;20510;-84
2021/05/30 07:50:16;;;;;;;4.13;3.73;;;14.60;99.90;;;;;;5121732;28;20399;-84
2021/05/30 07:52:42;;;;;;;7.37;5.57;;;14.70;99.90;;;;;;5123655;28;20545;-84
2021/05/30 07:55:09;;;;;;;5.73;4.20;;;14.80;99.90;;;;;;5104023;28;20384;-84
2021/05/30 07:57:36;;;;;;;4.83;4.07;;;14.90;99.90;;;;;;5121777;28;20392;-84
2021/05/30 08:00:05;;;;;;;5.80;5.00;;;14.90;99.90;;;;;;5122476;28;20396;-84
2021/05/30 08:02:30;;;;;;;6.07;4.20;;;14.90;99.90;;;;;;5122040;28;20398;-84
2021/05/30 08:04:56;;;;;;;5.50;3.20;;;14.80;99.90;;;;;;5103527;28;20782;-84
2021/05/30 08:07:23;;;;;;;12.20;4.67;;;14.90;99.90;;;;;;5101843;28;20162;-84
2021/05/30 08:09:50;;;;;;;5.00;4.60;;;15.10;99.90;;;;;;5070441;28;20201;-84
2021/05/30 08:12:15;;;;;;;6.00;4.63;;;14.90;99.90;;;;;;5121484;28;20530;-84
2021/05/30 08:14:42;;;;;;;5.90;4.37;;;14.80;99.90;;;;;;5121724;28;20423;-84
2021/05/30 08:17:08;;;;;;;5.33;4.80;;;14.90;99.90;;;;;;5121876;28;20158;-84
2021/05/30 08:19:35;;;;;;;4.17;3.77;;;15.00;99.90;;;;;;5122308;28;20388;-84
2021/05/30 08:22:01;;;;;;;7.53;4.10;;;15.20;99.90;;;;;;5104669;28;20887;-84
2021/05/30 08:24:27;;;;;;;5.33;3.70;;;15.20;99.90;;;;;;5122484;28;20452;-84
2021/05/30 08:26:54;;;;;;;4.57;3.73;;;15.30;99.90;;;;;;5122318;28;20396;-84
2021/05/30 08:29:23;;;;;;;3.60;3.30;;;15.20;99.90;;;;;;5122370;28;20417;-84
2021/05/30 08:31:49;;;;;;;10.53;4.00;;;15.10;99.90;;;;;;5123408;28;20519;-84
2021/05/30 08:34:17;;;;;;;4.27;3.90;;;15.20;99.90;;;;;;5121714;28;20392;-84
2021/05/30 08:36:43;;;;;;;4.00;3.70;;;15.30;99.90;;;;;;5103219;28;20384;-84
2021/05/30 08:39:09;;;;;;;3.80;3.50;;;15.40;99.90;;;;;;5103213;28;20398;-84
2021/05/30 08:41:35;;;;;;;5.30;4.77;;;15.30;99.90;;;;;;5120956;28;20185;-84
2021/05/30 08:44:01;;;;;;;4.70;4.03;;;15.50;99.90;;;;;;5120875;28;20400;-84
2021/05/30 08:46:28;;;;;;;6.87;3.63;;;15.40;99.90;;;;;;5122340;28;20412;-84
2021/05/30 08:48:56;;;;;;;4.03;3.23;;;15.60;99.90;;;;;;5088540;28;20392;-83
2021/05/30 08:51:22;;;;;;;3.77;3.47;;;15.60;99.90;;;;;;5111814;28;20857;-81
2021/05/30 08:53:49;;;;;;;15.43;4.30;;;15.70;99.90;;;;;;5110325;28;20411;-84
2021/05/30 08:56:17;;;;;;;4.90;3.83;;;15.70;99.90;;;;;;5102740;28;20382;-83
2021/05/30 08:58:47;;;;;;;4.40;4.00;;;15.70;99.90;;;;;;5120920;28;20388;-84
2021/05/30 09:01:15;;;;;;;6.63;4.07;;;15.70;99.90;;;;;;5120340;28;20428;-84
2021/05/30 09:03:52;;;;;;;4.13;3.77;;;15.80;99.90;;;;;;5120939;28;20395;-83
2021/05/30 09:06:19;;;;;;;5.80;4.73;;;16.00;99.90;;;;;;5119784;28;20459;-84
2021/05/30 09:08:45;;;;;;;3.77;3.47;;;16.00;99.90;;;;;;5102333;28;20431;-84
2021/05/30 09:11:11;;;;;;;3.67;3.37;;;15.90;99.90;;;;;;5103052;28;20424;-83
2021/05/30 09:13:54;;;;;;;10.83;5.00;;;16.10;99.90;;;;;;5122034;28;20392;-83
2021/05/30 09:16:21;;;;;;;6.83;4.40;;;16.10;99.90;;;;;;5121642;28;20417;-84
2021/05/30 09:18:48;;;;;;;5.47;3.43;;;16.30;99.90;;;;;;5104968;28;20397;-84
2021/05/30 09:21:14;;;;;;;3.57;3.23;;;16.60;99.90;;;;;;5126104;28;20411;-84
2021/05/30 09:23:43;;;;;;;4.00;3.40;;;16.80;99.90;;;;;;5134938;28;20396;-82
2021/05/30 09:26:24;;;;;;;2.60;2.40;;;16.90;99.90;;;;;;5138405;28;20396;-84
2021/05/30 09:29:08;;;;;;;8.93;5.03;;;16.70;99.90;;;;;;5135176;28;20392;-82
2021/05/30 09:31:52;;;;;;;4.40;4.00;;;16.70;99.90;;;;;;5134193;28;20442;-83
2021/05/30 09:34:36;;;;;;;3.17;2.83;;;17.00;99.90;;;;;;5122349;28;20399;-83
2021/05/30 09:37:03;;;;;;;3.97;2.60;;;16.90;99.90;;;;;;5104525;28;20398;-84
2021/05/30 09:39:38;;;;;;;3.00;2.80;;;17.00;99.90;;;;;;5121533;28;20767;-83
2021/05/30 09:42:25;;;;;;;3.63;2.87;;;16.90;99.90;;;;;;5122222;28;20483;-83
2021/05/30 09:45:01;;;;;;;3.00;2.80;;;16.90;99.90;;;;;;5095177;28;20529;-83
2021/05/30 09:47:32;;;;;;;2.80;2.60;;;17.00;99.90;;;;;;5081357;28;20396;-83
2021/05/30 09:49:58;;;;;;;3.30;2.67;;;17.10;99.90;;;;;;5082098;28;20424;-83
2021/05/30 09:52:42;;;;;;;3.13;2.83;;;17.20;99.90;;;;;;5100271;28;20440;-83
2021/05/30 09:55:17;;;;;;;2.50;2.30;;;17.40;99.90;;;;;;5100120;28;20388;-85
2021/05/30 09:58:04;;;;;;;3.70;2.70;;;17.50;99.90;;;;;;5081078;28;20479;-85
2021/05/30 10:00:30;;;;;;;3.10;2.90;;;17.50;99.90;;;;;;5100020;28;20442;-85
2021/05/30 10:02:56;;;;;;;2.23;2.13;;;17.40;99.90;;;;;;5100167;28;20484;-85
2021/05/30 10:05:22;;;;;;;3.10;2.90;;;17.20;99.90;;;;;;5099875;28;20537;-85
2021/05/30 10:07:49;;;;;;;2.90;2.70;;;17.30;99.90;;;;;;5099098;28;20926;-84
2021/05/30 10:10:16;;;;;;;3.37;3.07;;;17.40;99.90;;;;;;5082403;28;20227;-84
2021/05/30 10:12:43;;;;;;;4.87;2.70;;;17.50;99.90;;;;;;5100173;28;20480;-84
2021/05/30 10:15:10;;;;;;;7.17;3.20;;;17.50;99.90;;;;;;5100303;28;20833;-84
2021/05/30 10:17:38;;;;;;;4.13;3.37;;;17.80;99.90;;;;;;5099532;28;20723;-83
2021/05/30 10:20:09;;;;;;;4.70;3.20;;;17.60;99.90;;;;;;5099278;28;20389;-84
2021/05/30 10:22:36;;;;;;;2.80;2.60;;;17.70;99.90;;;;;;5081660;28;20389;-84
2021/05/30 10:25:03;;;;;;;3.77;2.97;;;17.40;99.90;;;;;;5098956;28;20450;-84
2021/05/30 10:27:30;;;;;;;3.63;3.13;;;17.50;99.90;;;;;;5082039;28;20393;-84
2021/05/30 10:30:16;;;;;;;3.00;2.47;;;17.50;99.90;;;;;;5101027;28;20418;-84
2021/05/30 10:32:45;;;;;;;3.73;2.70;;;17.60;99.40;;;;;;5085309;28;20448;-83
2021/05/30 10:35:23;;;;;;;6.57;2.47;;;17.90;99.90;;;;;;5104192;28;20719;-83
2021/05/30 10:37:52;;;;;;;3.10;2.83;;;17.80;99.90;;;;;;5103745;28;20392;-82
2021/05/30 10:40:28;;;;;;;2.83;2.63;;;17.90;98.10;;;;;;5103852;28;20439;-85
2021/05/30 10:43:15;;;;;;;3.30;3.00;;;17.90;99.30;;;;;;5089582;28;20416;-84
2021/05/30 10:45:59;;;;;;;3.40;2.30;;;18.00;97.20;;;;;;5085698;28;20450;-85
2021/05/30 10:48:25;;;;;;;4.53;3.10;;;18.20;97.70;;;;;;5105782;28;20392;-84
2021/05/30 10:51:11;;;;;;;3.53;3.23;;;18.30;97.80;;;;;;5123162;28;20469;-84
2021/05/30 10:53:44;;;;;;;2.80;2.60;;;18.20;97.50;;;;;;5090581;28;20170;-83
2021/05/30 10:56:31;;;;;;;3.50;2.90;;;18.20;98.90;;;;;;5106147;28;20396;-83
2021/05/30 10:59:19;;;;;;;2.83;2.50;;;18.20;96.10;;;;;;5133835;28;20388;-84
2021/05/30 11:01:48;;;;;;;3.17;2.87;;;18.70;96.60;;;;;;5101090;28;20403;-83
2021/05/30 11:04:30;;;;;;;2.60;2.37;;;18.70;94.40;;;;;;5108648;28;20392;-84
2021/05/30 11:07:05;;;;;;;3.20;3.00;;;18.70;95.30;;;;;;5105983;28;20391;-84
2021/05/30 11:10:03;;;;;;;4.03;2.47;;;18.40;94.30;;;;;;5123040;28;20464;-84
2021/05/30 11:12:43;;;;;;;2.97;2.77;;;18.40;94.10;;;;;;5122119;28;20943;-84
2021/05/30 11:15:28;;;;;;;3.00;2.80;;;18.80;94.30;;;;;;5105590;28;20403;-84
2021/05/30 11:17:59;;;;;;;7.30;3.53;;;19.00;97.70;;;;;;5087218;28;20742;-84
2021/05/30 11:20:39;;;;;;;3.43;3.13;;;19.00;95.50;;;;;;5122605;28;20392;-84
2021/05/30 11:23:11;;;;;;;2.57;2.37;;;18.80;95.50;;;;;;5105778;28;20402;-84
2021/05/30 11:25:48;;;;;;;4.40;3.00;;;18.80;96.60;;;;;;5124019;28;20402;-83
2021/05/30 11:28:19;;;;;;;2.80;2.60;;;18.90;95.20;;;;;;5121817;28;20421;-83
2021/05/30 11:30:57;;;;;;;5.30;2.87;;;18.60;94.30;;;;;;5125834;28;20392;-83
2021/05/30 11:33:29;;;;;;;6.70;2.70;;;18.70;94.00;;;;;;5127833;28;20396;-83
2021/05/30 11:36:16;;;;;;;4.07;3.07;;;18.60;95.60;;;;;;5125397;28;20413;-83
2021/05/30 11:38:52;;;;;;;3.40;2.90;;;18.40;94.70;;;;;;5075323;28;20409;-84
2021/05/30 11:41:33;;;;;;;2.73;2.50;;;18.20;94.60;;;;;;5078849;28;20938;-84
2021/05/30 11:44:10;;;;;;;4.00;3.27;;;18.60;96.90;;;;;;5078984;28;20427;-83
2021/05/30 11:46:39;;;;;;;4.27;2.70;;;18.80;96.40;;;;;;5079885;28;20460;-84
2021/05/30 11:49:24;;;;;;;3.10;2.80;;;18.60;93.60;;;;;;5062946;28;20410;-84
2021/05/30 11:51:57;;;;;;;6.60;3.23;;;18.80;95.20;;;;;;5080630;28;20544;-84
2021/05/30 11:54:24;;;;;;;3.40;2.50;;;19.10;95.10;;;;;;5031573;28;20414;-84
2021/05/30 11:56:56;;;;;;;3.53;2.67;;;19.70;93.30;;;;;;5082404;28;20393;-84
2021/05/30 11:59:39;;;;;;;5.23;2.97;;;19.80;92.00;;;;;;5065724;28;20405;-84
2021/05/30 12:02:06;;;;;;;3.00;2.80;;;20.10;91.10;;;;;;5084155;28;20517;-84
2021/05/30 12:04:40;;;;;;;7.40;3.40;;;20.30;91.40;;;;;;5092066;28;20459;-84
2021/05/30 12:07:10;;;;;;;2.60;2.40;;;20.00;90.60;;;;;;5073069;28;20394;-84
2021/05/30 12:09:53;;;;;;;3.53;3.23;;;19.40;91.60;;;;;;5107303;28;20415;-84
2021/05/30 12:12:39;;;;;;;3.80;3.50;;;19.80;90.90;;;;;;5095973;28;20531;-84
2021/05/30 12:15:23;;;;;;;3.20;2.90;;;20.70;90.90;;;;;;5125625;28;20396;-84
2021/05/30 12:18:04;;;;;;;3.43;3.10;;;21.00;90.00;;;;;;5124499;28;20399;-83
2021/05/30 12:20:35;;;;;;;3.47;3.27;;;20.40;88.10;;;;;;5105022;28;20471;-84
2021/05/30 12:23:12;;;;;;;2.77;2.57;;;20.50;89.80;;;;;;5122381;28;20392;-84
2021/05/30 12:25:58;;;;;;;5.93;3.63;;;20.70;90.20;;;;;;5123881;28;20387;-84
2021/05/30 12:28:30;;;;;;;5.77;3.20;;;20.90;88.20;;;;;;5087579;28;20416;-83
2021/05/30 12:30:57;;;;;;;3.70;2.73;;;21.60;86.30;;;;;;5103852;28;20435;-84
2021/05/30 12:33:24;;;;;;;4.27;3.00;;;22.30;82.60;;;;;;5070783;28;20495;-84
2021/05/30 12:35:53;;;;;;;3.00;2.80;;;22.60;81.40;;;;;;5123369;28;20419;-85
2021/05/30 12:38:24;;;;;;;2.97;2.77;;;21.00;80.00;;;;;;5122762;28;20399;-85
2021/05/30 12:40:50;;;;;;;4.13;3.07;;;20.40;83.10;;;;;;5123453;28;20396;-84
2021/05/30 12:43:34;;;;;;;4.70;2.80;;;20.30;83.30;;;;;;5102734;28;20395;-85
2021/05/30 12:46:03;;;;;;;2.80;2.60;;;21.10;81.80;;;;;;5121721;28;20229;-84
2021/05/30 12:48:47;;;;;;;3.83;3.00;;;21.00;80.40;;;;;;5042617;28;20464;-85
2021/05/30 12:51:19;;;;;;;3.40;3.10;;;20.70;76.70;;;;;;5069560;28;20616;-85
2021/05/30 12:53:48;;;;;;;3.63;2.80;;;20.20;80.00;;;;;;5051239;28;20390;-84